sensor_id;sensor_type;location;lat;lon;timestamp;pressure;altitude;pressure_sealevel;temperature;humidity
31005;BME280;17676;52.254;4.490;2023-04-20T00:00:28;102352.84;;;9.83;100.00
31005;BME280;17676;52.254;4.490;2023-04-20T00:02:54;102363.13;;;9.80;100.00
31005;BME280;17676;52.254;4.490;2023-04-20T00:05:20;102350.13;;;9.83;100.00
31005;BME280;17676;52.254;4.490;2023-04-20T00:07:45;102355.34;;;9.69;100.00
31005;BME280;17676;52.254;4.490;2023-04-20T00:10:12;102340.63;;;9.63;100.00
31005;BME280;17676;52.254;4.490;2023-04-20T00:12:38;102333.84;;;9.51;100.00
31005;BME280;17676;52.254;4.490;2023-04-20T00:15:06;102336.41;;;9.61;100.00
31005;BME280;17676;52.254;4.490;2023-04-20T00:17:31;102331.31;;;9.58;100.00
31005;BME280;17676;52.254;4.490;2023-04-20T00:19:58;102328.97;;;9.63;100.00
31005;BME280;17676;52.254;4.490;2023-04-20T00:22:24;102331.31;;;9.58;100.00
31005;BME280;17676;52.254;4.490;2023-04-20T00:24:51;102343.81;;;9.59;100.00
31005;BME280;17676;52.254;4.490;2023-04-20T00:27:17;102340.59;;;9.47;100.00
31005;BME280;17676;52.254;4.490;2023-04-20T00:29:43;102326.22;;;9.47;100.00
31005;BME280;17676;52.254;4.490;2023-04-20T00:32:09;102319.13;;;9.46;100.00
31005;BME280;17676;52.254;4.490;2023-04-20T00:34:35;102318.75;;;9.33;100.00
31005;BME280;17676;52.254;4.490;2023-04-20T00:37:00;102334.28;;;9.31;100.00
31005;BME280;17676;52.254;4.490;2023-04-20T00:39:26;102323.28;;;9.24;100.00
31005;BME280;17676;52.254;4.490;2023-04-20T00:41:51;102323.22;;;9.08;100.00
31005;BME280;17676;52.254;4.490;2023-04-20T00:44:17;102319.00;;;9.14;100.00
31005;BME280;17676;52.254;4.490;2023-04-20T00:46:43;102315.81;;;9.10;100.00
31005;BME280;17676;52.254;4.490;2023-04-20T00:49:09;102312.19;;;8.94;100.00
31005;BME280;17676;52.254;4.490;2023-04-20T00:51:35;102299.66;;;8.85;100.00
31005;BME280;17676;52.254;4.490;2023-04-20T00:54:02;102312.69;;;8.97;100.00
31005;BME280;17676;52.254;4.490;2023-04-20T00:56:27;102298.09;;;8.74;100.00
31005;BME280;17676;52.254;4.490;2023-04-20T00:58:53;102290.50;;;8.78;100.00
31005;BME280;17676;52.254;4.490;2023-04-20T01:01:19;102295.53;;;8.73;100.00
31005;BME280;17676;52.254;4.490;2023-04-20T01:03:45;102297.03;;;8.67;100.00
31005;BME280;17676;52.254;4.490;2023-04-20T01:06:12;102284.84;;;8.63;100.00
31005;BME280;17676;52.254;4.490;2023-04-20T01:08:46;102285.88;;;8.62;100.00
31005;BME280;17676;52.254;4.490;2023-04-20T01:11:12;102292.28;;;8.69;100.00
31005;BME280;17676;52.254;4.490;2023-04-20T01:13:38;102285.47;;;8.57;100.00
31005;BME280;17676;52.254;4.490;2023-04-20T01:16:03;102270.50;;;8.63;100.00
31005;BME280;17676;52.254;4.490;2023-04-20T01:18:42;102267.13;;;8.61;100.00
31005;BME280;17676;52.254;4.490;2023-04-20T01:21:11;102279.56;;;8.54;100.00
31005;BME280;17676;52.254;4.490;2023-04-20T01:23:37;102272.19;;;8.56;100.00
31005;BME280;17676;52.254;4.490;2023-04-20T01:26:07;102247.31;;;8.44;100.00
31005;BME280;17676;52.254;4.490;2023-04-20T01:28:33;102251.56;;;8.55;100.00
31005;BME280;17676;52.254;4.490;2023-04-20T01:30:59;102251.22;;;8.50;100.00
31005;BME280;17676;52.254;4.490;2023-04-20T01:33:25;102254.63;;;8.52;100.00
31005;BME280;17676;52.254;4.490;2023-04-20T01:35:51;102240.41;;;8.50;100.00
31005;BME280;17676;52.254;4.490;2023-04-20T01:38:18;102224.47;;;8.31;100.00
31005;BME280;17676;52.254;4.490;2023-04-20T01:40:44;102235.13;;;8.40;100.00
31005;BME280;17676;52.254;4.490;2023-04-20T01:43:10;102227.34;;;8.29;100.00
31005;BME280;17676;52.254;4.490;2023-04-20T01:45:36;102220.03;;;8.22;100.00
31005;BME280;17676;52.254;4.490;2023-04-20T01:48:01;102226.19;;;8.32;100.00
31005;BME280;17676;52.254;4.490;2023-04-20T01:50:27;102208.53;;;8.20;100.00
31005;BME280;17676;52.254;4.490;2023-04-20T01:52:53;102204.47;;;8.16;100.00
31005;BME280;17676;52.254;4.490;2023-04-20T01:55:18;102216.56;;;8.29;100.00
31005;BME280;17676;52.254;4.490;2023-04-20T01:57:44;102220.56;;;8.25;100.00
31005;BME280;17676;52.254;4.490;2023-04-20T02:00:11;102221.72;;;8.23;100.00
31005;BME280;17676;52.254;4.490;2023-04-20T02:02:37;102206.56;;;8.04;100.00
31005;BME280;17676;52.254;4.490;2023-04-20T02:05:02;102201.16;;;8.04;100.00
31005;BME280;17676;52.254;4.490;2023-04-20T02:07:29;102201.38;;;8.11;100.00
31005;BME280;17676;52.254;4.490;2023-04-20T02:09:55;102189.50;;;7.96;100.00
31005;BME280;17676;52.254;4.490;2023-04-20T02:12:21;102183.41;;;7.94;100.00
31005;BME280;17676;52.254;4.490;2023-04-20T02:14:47;102180.41;;;7.97;100.00
31005;BME280;17676;52.254;4.490;2023-04-20T02:17:12;102183.09;;;7.97;100.00
31005;BME280;17676;52.254;4.490;2023-04-20T02:19:38;102183.50;;;8.10;100.00
31005;BME280;17676;52.254;4.490;2023-04-20T02:22:05;102186.75;;;8.13;100.00
31005;BME280;17676;52.254;4.490;2023-04-20T02:24:32;102182.34;;;8.12;100.00
31005;BME280;17676;52.254;4.490;2023-04-20T02:26:57;102199.59;;;8.19;100.00
31005;BME280;17676;52.254;4.490;2023-04-20T02:29:24;102204.31;;;8.17;100.00
31005;BME280;17676;52.254;4.490;2023-04-20T02:31:50;102190.97;;;8.16;100.00
31005;BME280;17676;52.254;4.490;2023-04-20T02:34:15;102174.31;;;8.20;100.00
31005;BME280;17676;52.254;4.490;2023-04-20T02:36:41;102171.75;;;8.19;100.00
31005;BME280;17676;52.254;4.490;2023-04-20T02:39:07;102162.16;;;8.16;100.00
31005;BME280;17676;52.254;4.490;2023-04-20T02:41:32;102165.25;;;8.21;100.00
31005;BME280;17676;52.254;4.490;2023-04-20T02:43:58;102170.50;;;8.31;100.00
31005;BME280;17676;52.254;4.490;2023-04-20T02:46:24;102166.44;;;8.27;100.00
31005;BME280;17676;52.254;4.490;2023-04-20T02:48:49;102153.47;;;8.22;100.00
31005;BME280;17676;52.254;4.490;2023-04-20T02:51:15;102156.69;;;8.26;100.00
31005;BME280;17676;52.254;4.490;2023-04-20T02:53:41;102137.00;;;8.08;100.00
31005;BME280;17676;52.254;4.490;2023-04-20T02:56:06;102168.47;;;8.25;100.00
31005;BME280;17676;52.254;4.490;2023-04-20T02:58:33;102153.63;;;8.21;100.00
31005;BME280;17676;52.254;4.490;2023-04-20T03:00:59;102149.91;;;8.22;100.00
31005;BME280;17676;52.254;4.490;2023-04-20T03:03:25;102138.44;;;8.20;100.00
31005;BME280;17676;52.254;4.490;2023-04-20T03:05:51;102130.03;;;8.23;100.00
31005;BME280;17676;52.254;4.490;2023-04-20T03:08:17;102143.53;;;8.31;100.00
31005;BME280;17676;52.254;4.490;2023-04-20T03:10:42;102139.88;;;8.32;100.00
31005;BME280;17676;52.254;4.490;2023-04-20T03:13:08;102133.03;;;8.20;100.00
31005;BME280;17676;52.254;4.490;2023-04-20T03:15:34;102119.00;;;8.16;100.00
31005;BME280;17676;52.254;4.490;2023-04-20T03:18:00;102117.31;;;8.15;100.00
31005;BME280;17676;52.254;4.490;2023-04-20T03:20:26;102115.88;;;8.21;100.00
31005;BME280;17676;52.254;4.490;2023-04-20T03:22:52;102117.44;;;8.31;100.00
31005;BME280;17676;52.254;4.490;2023-04-20T03:25:18;102104.78;;;8.32;100.00
31005;BME280;17676;52.254;4.490;2023-04-20T03:27:47;102101.78;;;8.43;100.00
31005;BME280;17676;52.254;4.490;2023-04-20T03:30:13;102106.53;;;8.49;100.00
31005;BME280;17676;52.254;4.490;2023-04-20T03:32:39;102102.84;;;8.58;100.00
31005;BME280;17676;52.254;4.490;2023-04-20T03:35:08;102093.44;;;8.70;100.00
31005;BME280;17676;52.254;4.490;2023-04-20T03:37:37;102103.22;;;8.79;100.00
31005;BME280;17676;52.254;4.490;2023-04-20T03:40:03;102086.03;;;8.72;100.00
31005;BME280;17676;52.254;4.490;2023-04-20T03:42:31;102088.06;;;8.78;100.00
31005;BME280;17676;52.254;4.490;2023-04-20T03:44:56;102097.34;;;8.83;100.00
31005;BME280;17676;52.254;4.490;2023-04-20T03:47:22;102079.31;;;8.92;100.00
31005;BME280;17676;52.254;4.490;2023-04-20T03:49:48;102072.72;;;8.94;100.00
31005;BME280;17676;52.254;4.490;2023-04-20T03:52:13;102069.88;;;8.88;100.00
31005;BME280;17676;52.254;4.490;2023-04-20T03:54:39;102084.53;;;9.01;100.00
31005;BME280;17676;52.254;4.490;2023-04-20T03:57:05;102066.97;;;8.97;100.00
31005;BME280;17676;52.254;4.490;2023-04-20T03:59:31;102074.59;;;9.18;100.00
31005;BME280;17676;52.254;4.490;2023-04-20T04:01:58;102056.00;;;9.15;100.00
31005;BME280;17676;52.254;4.490;2023-04-20T04:04:24;102052.97;;;9.18;100.00
31005;BME280;17676;52.254;4.490;2023-04-20T04:06:50;102041.47;;;9.24;100.00
31005;BME280;17676;52.254;4.490;2023-04-20T04:09:16;102054.66;;;9.35;100.00
31005;BME280;17676;52.254;4.490;2023-04-20T04:11:41;102050.91;;;9.36;100.00
31005;BME280;17676;52.254;4.490;2023-04-20T04:14:07;102037.63;;;9.34;100.00
31005;BME280;17676;52.254;4.490;2023-04-20T04:16:32;102033.38;;;9.32;100.00
31005;BME280;17676;52.254;4.490;2023-04-20T04:19:01;102047.25;;;9.21;100.00
31005;BME280;17676;52.254;4.490;2023-04-20T04:21:26;102048.06;;;9.37;100.00
31005;BME280;17676;52.254;4.490;2023-04-20T04:24:02;102019.53;;;9.35;100.00
31005;BME280;17676;52.254;4.490;2023-04-20T04:26:33;102027.63;;;9.35;100.00
31005;BME280;17676;52.254;4.490;2023-04-20T04:28:59;102026.59;;;9.44;100.00
31005;BME280;17676;52.254;4.490;2023-04-20T04:31:29;102028.16;;;9.38;100.00
31005;BME280;17676;52.254;4.490;2023-04-20T04:33:57;102031.50;;;9.40;100.00
31005;BME280;17676;52.254;4.490;2023-04-20T04:36:23;102025.94;;;9.34;100.00
31005;BME280;17676;52.254;4.490;2023-04-20T04:38:51;102021.22;;;9.28;100.00
31005;BME280;17676;52.254;4.490;2023-04-20T04:41:17;102018.50;;;9.28;100.00
31005;BME280;17676;52.254;4.490;2023-04-20T04:43:43;102005.38;;;9.25;100.00
31005;BME280;17676;52.254;4.490;2023-04-20T04:46:10;102007.06;;;9.18;100.00
31005;BME280;17676;52.254;4.490;2023-04-20T04:48:37;102003.31;;;9.27;100.00
31005;BME280;17676;52.254;4.490;2023-04-20T04:51:05;101998.25;;;9.32;100.00
31005;BME280;17676;52.254;4.490;2023-04-20T04:53:30;102016.50;;;9.30;100.00
31005;BME280;17676;52.254;4.490;2023-04-20T04:55:56;102007.53;;;9.37;100.00
31005;BME280;17676;52.254;4.490;2023-04-20T04:58:22;101994.56;;;9.25;100.00
31005;BME280;17676;52.254;4.490;2023-04-20T05:00:47;102001.81;;;9.32;100.00
31005;BME280;17676;52.254;4.490;2023-04-20T05:03:14;102015.28;;;9.40;100.00
31005;BME280;17676;52.254;4.490;2023-04-20T05:05:40;101990.13;;;9.32;100.00
31005;BME280;17676;52.254;4.490;2023-04-20T05:08:06;101998.59;;;9.37;100.00
31005;BME280;17676;52.254;4.490;2023-04-20T05:10:32;101998.22;;;9.40;100.00
31005;BME280;17676;52.254;4.490;2023-04-20T05:12:57;101985.75;;;9.31;100.00
31005;BME280;17676;52.254;4.490;2023-04-20T05:15:24;101995.22;;;9.35;100.00
31005;BME280;17676;52.254;4.490;2023-04-20T05:17:50;102003.28;;;9.51;100.00
31005;BME280;17676;52.254;4.490;2023-04-20T05:20:17;102008.34;;;9.54;100.00
31005;BME280;17676;52.254;4.490;2023-04-20T05:22:43;101998.56;;;9.53;100.00
31005;BME280;17676;52.254;4.490;2023-04-20T05:25:09;101992.31;;;9.52;100.00
31005;BME280;17676;52.254;4.490;2023-04-20T05:27:35;101993.50;;;9.50;100.00
31005;BME280;17676;52.254;4.490;2023-04-20T05:30:01;101986.22;;;9.58;100.00
31005;BME280;17676;52.254;4.490;2023-04-20T05:32:29;101990.56;;;9.67;100.00
31005;BME280;17676;52.254;4.490;2023-04-20T05:34:55;101978.56;;;9.70;100.00
31005;BME280;17676;52.254;4.490;2023-04-20T05:37:22;101978.22;;;9.73;100.00
31005;BME280;17676;52.254;4.490;2023-04-20T05:39:48;101978.38;;;9.71;100.00
31005;BME280;17676;52.254;4.490;2023-04-20T05:42:13;101986.66;;;9.78;100.00
31005;BME280;17676;52.254;4.490;2023-04-20T05:44:39;101991.50;;;9.82;100.00
31005;BME280;17676;52.254;4.490;2023-04-20T05:47:05;101977.81;;;9.84;100.00
31005;BME280;17676;52.254;4.490;2023-04-20T05:49:33;101971.53;;;9.91;100.00
31005;BME280;17676;52.254;4.490;2023-04-20T05:51:58;101964.81;;;9.87;100.00
31005;BME280;17676;52.254;4.490;2023-04-20T05:54:26;101967.28;;;10.05;100.00
31005;BME280;17676;52.254;4.490;2023-04-20T05:56:55;101969.63;;;10.00;100.00
31005;BME280;17676;52.254;4.490;2023-04-20T05:59:25;101972.66;;;10.13;100.00
31005;BME280;17676;52.254;4.490;2023-04-20T06:01:51;101978.84;;;10.22;100.00
31005;BME280;17676;52.254;4.490;2023-04-20T06:04:16;101978.88;;;10.13;100.00
31005;BME280;17676;52.254;4.490;2023-04-20T06:06:45;101978.72;;;10.15;100.00
31005;BME280;17676;52.254;4.490;2023-04-20T06:09:11;101985.50;;;10.11;100.00
31005;BME280;17676;52.254;4.490;2023-04-20T06:11:36;101965.94;;;10.01;100.00
31005;BME280;17676;52.254;4.490;2023-04-20T06:14:02;101975.72;;;10.10;100.00
31005;BME280;17676;52.254;4.490;2023-04-20T06:16:28;101974.38;;;10.06;100.00
31005;BME280;17676;52.254;4.490;2023-04-20T06:18:57;101964.19;;;10.08;100.00
31005;BME280;17676;52.254;4.490;2023-04-20T06:21:23;101978.72;;;10.15;100.00
31005;BME280;17676;52.254;4.490;2023-04-20T06:23:49;101984.28;;;10.13;100.00
31005;BME280;17676;52.254;4.490;2023-04-20T06:26:15;101979.44;;;10.09;100.00
31005;BME280;17676;52.254;4.490;2023-04-20T06:28:42;101963.41;;;9.99;100.00
31005;BME280;17676;52.254;4.490;2023-04-20T06:31:10;101962.19;;;10.02;100.00
31005;BME280;17676;52.254;4.490;2023-04-20T06:33:36;101966.22;;;10.14;100.00
31005;BME280;17676;52.254;4.490;2023-04-20T06:36:04;101959.47;;;10.10;100.00
31005;BME280;17676;52.254;4.490;2023-04-20T06:38:31;101973.66;;;10.12;100.00
31005;BME280;17676;52.254;4.490;2023-04-20T06:40:56;101962.00;;;10.12;100.00
31005;BME280;17676;52.254;4.490;2023-04-20T06:43:26;101958.56;;;10.18;100.00
31005;BME280;17676;52.254;4.490;2023-04-20T06:45:51;101971.22;;;10.25;100.00
31005;BME280;17676;52.254;4.490;2023-04-20T06:48:18;101968.38;;;10.18;100.00
31005;BME280;17676;52.254;4.490;2023-04-20T06:50:49;101955.47;;;10.29;100.00
31005;BME280;17676;52.254;4.490;2023-04-20T06:53:16;101944.59;;;10.37;100.00
31005;BME280;17676;52.254;4.490;2023-04-20T06:55:43;101938.06;;;10.68;100.00
31005;BME280;17676;52.254;4.490;2023-04-20T06:58:09;101950.84;;;10.60;100.00
31005;BME280;17676;52.254;4.490;2023-04-20T07:00:35;101920.47;;;10.50;100.00
31005;BME280;17676;52.254;4.490;2023-04-20T07:03:00;101919.25;;;10.52;100.00
31005;BME280;17676;52.254;4.490;2023-04-20T07:05:27;101918.63;;;10.50;100.00
31005;BME280;17676;52.254;4.490;2023-04-20T07:07:54;101926.19;;;10.32;100.00
31005;BME280;17676;52.254;4.490;2023-04-20T07:10:20;101940.25;;;10.50;100.00
31005;BME280;17676;52.254;4.490;2023-04-20T07:12:46;101940.13;;;10.66;100.00
31005;BME280;17676;52.254;4.490;2023-04-20T07:15:13;101938.13;;;10.60;100.00
31005;BME280;17676;52.254;4.490;2023-04-20T07:17:39;101928.00;;;10.62;100.00
31005;BME280;17676;52.254;4.490;2023-04-20T07:20:06;101938.31;;;10.59;100.00
31005;BME280;17676;52.254;4.490;2023-04-20T07:22:39;101928.81;;;10.63;100.00
31005;BME280;17676;52.254;4.490;2023-04-20T07:25:06;101933.69;;;10.67;100.00
31005;BME280;17676;52.254;4.490;2023-04-20T07:27:36;101923.69;;;10.45;100.00
31005;BME280;17676;52.254;4.490;2023-04-20T07:30:04;101932.91;;;10.36;100.00
31005;BME280;17676;52.254;4.490;2023-04-20T07:32:34;101908.19;;;10.39;100.00
31005;BME280;17676;52.254;4.490;2023-04-20T07:35:00;101913.78;;;10.38;100.00
31005;BME280;17676;52.254;4.490;2023-04-20T07:37:28;101947.94;;;10.61;100.00
31005;BME280;17676;52.254;4.490;2023-04-20T07:39:56;101940.84;;;10.60;100.00
31005;BME280;17676;52.254;4.490;2023-04-20T07:42:22;101927.16;;;10.39;100.00
31005;BME280;17676;52.254;4.490;2023-04-20T07:44:48;101928.75;;;10.26;100.00
31005;BME280;17676;52.254;4.490;2023-04-20T07:47:17;101920.53;;;10.19;100.00
31005;BME280;17676;52.254;4.490;2023-04-20T07:49:44;101931.34;;;10.19;100.00
31005;BME280;17676;52.254;4.490;2023-04-20T07:52:10;101924.84;;;10.28;100.00
31005;BME280;17676;52.254;4.490;2023-04-20T07:54:37;101920.09;;;10.07;100.00
31005;BME280;17676;52.254;4.490;2023-04-20T07:57:11;101939.34;;;10.35;100.00
31005;BME280;17676;52.254;4.490;2023-04-20T07:59:44;101935.09;;;10.41;100.00
31005;BME280;17676;52.254;4.490;2023-04-20T08:02:15;101930.09;;;10.52;100.00
31005;BME280;17676;52.254;4.490;2023-04-20T08:04:42;101927.72;;;10.49;100.00
31005;BME280;17676;52.254;4.490;2023-04-20T08:07:09;101915.47;;;10.16;100.00
31005;BME280;17676;52.254;4.490;2023-04-20T08:09:35;101918.22;;;10.08;100.00
31005;BME280;17676;52.254;4.490;2023-04-20T08:12:09;101919.94;;;10.01;100.00
31005;BME280;17676;52.254;4.490;2023-04-20T08:14:36;101939.56;;;9.95;100.00
31005;BME280;17676;52.254;4.490;2023-04-20T08:17:02;101916.16;;;9.49;100.00
31005;BME280;17676;52.254;4.490;2023-04-20T08:19:31;101954.13;;;9.55;100.00
31005;BME280;17676;52.254;4.490;2023-04-20T08:21:58;101939.66;;;9.40;100.00
31005;BME280;17676;52.254;4.490;2023-04-20T08:24:24;101905.97;;;9.04;100.00
31005;BME280;17676;52.254;4.490;2023-04-20T08:26:51;101928.78;;;8.86;100.00
31005;BME280;17676;52.254;4.490;2023-04-20T08:29:18;101919.34;;;8.74;100.00
31005;BME280;17676;52.254;4.490;2023-04-20T08:31:47;101934.03;;;8.71;100.00
31005;BME280;17676;52.254;4.490;2023-04-20T08:34:13;101937.91;;;8.61;100.00
31005;BME280;17676;52.254;4.490;2023-04-20T08:36:39;101955.47;;;8.65;100.00
31005;BME280;17676;52.254;4.490;2023-04-20T08:39:07;101940.94;;;8.66;100.00
31005;BME280;17676;52.254;4.490;2023-04-20T08:41:34;101955.47;;;8.49;100.00
31005;BME280;17676;52.254;4.490;2023-04-20T08:44:00;101928.13;;;8.36;100.00
31005;BME280;17676;52.254;4.490;2023-04-20T08:46:26;101940.44;;;8.38;100.00
31005;BME280;17676;52.254;4.490;2023-04-20T08:48:53;101926.78;;;8.32;100.00
31005;BME280;17676;52.254;4.490;2023-04-20T08:51:22;101939.41;;;8.31;100.00
31005;BME280;17676;52.254;4.490;2023-04-20T08:53:48;101923.06;;;8.25;100.00
31005;BME280;17676;52.254;4.490;2023-04-20T08:56:14;101915.31;;;8.30;100.00
31005;BME280;17676;52.254;4.490;2023-04-20T08:58:40;101908.34;;;8.19;100.00
31005;BME280;17676;52.254;4.490;2023-04-20T09:01:11;101913.63;;;8.29;100.00
31005;BME280;17676;52.254;4.490;2023-04-20T09:03:39;101900.44;;;8.18;100.00
31005;BME280;17676;52.254;4.490;2023-04-20T09:06:15;101889.31;;;8.13;100.00
31005;BME280;17676;52.254;4.490;2023-04-20T09:08:42;101894.69;;;8.05;100.00
31005;BME280;17676;52.254;4.490;2023-04-20T09:11:21;101900.09;;;8.05;100.00
31005;BME280;17676;52.254;4.490;2023-04-20T09:16:35;101891.03;;;8.22;100.00
31005;BME280;17676;52.254;4.490;2023-04-20T09:19:05;101901.28;;;8.10;100.00
31005;BME280;17676;52.254;4.490;2023-04-20T09:21:31;101900.41;;;8.10;100.00
31005;BME280;17676;52.254;4.490;2023-04-20T09:24:04;101893.34;;;8.01;100.00
31005;BME280;17676;52.254;4.490;2023-04-20T09:26:34;101907.84;;;8.16;100.00
31005;BME280;17676;52.254;4.490;2023-04-20T09:29:01;101904.84;;;8.27;100.00
31005;BME280;17676;52.254;4.490;2023-04-20T09:31:28;101908.91;;;8.39;100.00
31005;BME280;17676;52.254;4.490;2023-04-20T09:36:34;101898.63;;;8.42;100.00
31005;BME280;17676;52.254;4.490;2023-04-20T09:39:03;101893.72;;;8.62;100.00
31005;BME280;17676;52.254;4.490;2023-04-20T09:41:31;101897.09;;;8.72;100.00
31005;BME280;17676;52.254;4.490;2023-04-20T09:43:58;101879.84;;;9.05;100.00
31005;BME280;17676;52.254;4.490;2023-04-20T09:46:28;101887.19;;;9.19;100.00
31005;BME280;17676;52.254;4.490;2023-04-20T09:48:57;101904.78;;;9.07;100.00
31005;BME280;17676;52.254;4.490;2023-04-20T09:51:27;101887.22;;;9.11;100.00
31005;BME280;17676;52.254;4.490;2023-04-20T09:54:38;101866.44;;;9.19;100.00
31005;BME280;17676;52.254;4.490;2023-04-20T09:57:09;101874.75;;;9.10;100.00
31005;BME280;17676;52.254;4.490;2023-04-20T09:59:40;101858.44;;;9.34;100.00
31005;BME280;17676;52.254;4.490;2023-04-20T10:02:08;101867.16;;;9.44;100.00
31005;BME280;17676;52.254;4.490;2023-04-20T10:04:35;101854.53;;;9.44;100.00
31005;BME280;17676;52.254;4.490;2023-04-20T10:07:01;101877.91;;;9.60;100.00
31005;BME280;17676;52.254;4.490;2023-04-20T10:09:30;101877.50;;;9.71;100.00
31005;BME280;17676;52.254;4.490;2023-04-20T10:12:08;101864.59;;;9.89;100.00
31005;BME280;17676;52.254;4.490;2023-04-20T10:14:34;101862.63;;;9.75;100.00
31005;BME280;17676;52.254;4.490;2023-04-20T10:17:05;101871.66;;;9.90;100.00
31005;BME280;17676;52.254;4.490;2023-04-20T10:19:42;101866.72;;;9.71;100.00
31005;BME280;17676;52.254;4.490;2023-04-20T10:22:11;101869.44;;;9.63;100.00
31005;BME280;17676;52.254;4.490;2023-04-20T10:24:37;101871.63;;;9.67;100.00
31005;BME280;17676;52.254;4.490;2023-04-20T10:27:15;101853.50;;;9.76;100.00
31005;BME280;17676;52.254;4.490;2023-04-20T10:29:41;101841.56;;;9.93;100.00
31005;BME280;17676;52.254;4.490;2023-04-20T10:32:07;101853.91;;;10.18;100.00
31005;BME280;17676;52.254;4.490;2023-04-20T10:34:35;101856.69;;;10.84;100.00
31005;BME280;17676;52.254;4.490;2023-04-20T10:37:11;101843.88;;;10.64;100.00
31005;BME280;17676;52.254;4.490;2023-04-20T10:39:45;101849.66;;;10.61;100.00
31005;BME280;17676;52.254;4.490;2023-04-20T10:42:12;101844.72;;;10.27;100.00
31005;BME280;17676;52.254;4.490;2023-04-20T10:44:48;101843.81;;;9.81;100.00
31005;BME280;17676;52.254;4.490;2023-04-20T10:47:14;101860.84;;;9.90;100.00
31005;BME280;17676;52.254;4.490;2023-04-20T10:49:40;101856.69;;;10.10;100.00
31005;BME280;17676;52.254;4.490;2023-04-20T10:52:07;101857.63;;;10.91;100.00
31005;BME280;17676;52.254;4.490;2023-04-20T10:54:38;101837.38;;;11.81;100.00
31005;BME280;17676;52.254;4.490;2023-04-20T10:57:04;101855.94;;;11.48;100.00
31005;BME280;17676;52.254;4.490;2023-04-20T10:59:31;101846.03;;;10.97;100.00
31005;BME280;17676;52.254;4.490;2023-04-20T11:01:57;101840.44;;;10.84;100.00
31005;BME280;17676;52.254;4.490;2023-04-20T11:04:32;101855.47;;;10.87;100.00
31005;BME280;17676;52.254;4.490;2023-04-20T11:07:09;101832.56;;;10.60;100.00
31005;BME280;17676;52.254;4.490;2023-04-20T11:09:37;101814.84;;;11.01;100.00
31005;BME280;17676;52.254;4.490;2023-04-20T11:12:05;101838.34;;;11.44;100.00
31005;BME280;17676;52.254;4.490;2023-04-20T11:14:34;101813.47;;;11.91;100.00
31005;BME280;17676;52.254;4.490;2023-04-20T11:17:03;101810.50;;;11.86;100.00
31005;BME280;17676;52.254;4.490;2023-04-20T11:19:34;101814.19;;;11.28;100.00
31005;BME280;17676;52.254;4.490;2023-04-20T11:22:02;101820.28;;;11.30;100.00
31005;BME280;17676;52.254;4.490;2023-04-20T11:24:30;101826.09;;;11.48;100.00
31005;BME280;17676;52.254;4.490;2023-04-20T11:26:58;101800.56;;;11.57;100.00
31005;BME280;17676;52.254;4.490;2023-04-20T11:31:56;101815.22;;;11.98;100.00
31005;BME280;17676;52.254;4.490;2023-04-20T11:34:23;101809.84;;;11.48;100.00
31005;BME280;17676;52.254;4.490;2023-04-20T11:36:52;101781.22;;;11.60;100.00
31005;BME280;17676;52.254;4.490;2023-04-20T11:39:27;101783.44;;;12.13;100.00
31005;BME280;17676;52.254;4.490;2023-04-20T11:41:54;101785.59;;;12.45;100.00
31005;BME280;17676;52.254;4.490;2023-04-20T11:44:22;101781.75;;;12.12;100.00
31005;BME280;17676;52.254;4.490;2023-04-20T11:46:48;101792.75;;;12.04;100.00
31005;BME280;17676;52.254;4.490;2023-04-20T11:49:17;101769.16;;;11.84;100.00
31005;BME280;17676;52.254;4.490;2023-04-20T11:51:46;101774.63;;;12.32;100.00
31005;BME280;17676;52.254;4.490;2023-04-20T11:54:14;101797.72;;;12.49;100.00
31005;BME280;17676;52.254;4.490;2023-04-20T11:56:41;101782.06;;;12.24;100.00
31005;BME280;17676;52.254;4.490;2023-04-20T11:59:07;101781.03;;;12.25;100.00
31005;BME280;17676;52.254;4.490;2023-04-20T12:01:34;101788.16;;;12.53;100.00
31005;BME280;17676;52.254;4.490;2023-04-20T12:04:01;101770.56;;;12.83;100.00
31005;BME280;17676;52.254;4.490;2023-04-20T12:06:27;101754.25;;;12.77;100.00
31005;BME280;17676;52.254;4.490;2023-04-20T12:08:54;101769.88;;;12.68;100.00
31005;BME280;17676;52.254;4.490;2023-04-20T12:11:21;101750.69;;;12.76;100.00
31005;BME280;17676;52.254;4.490;2023-04-20T12:13:47;101765.13;;;12.83;100.00
31005;BME280;17676;52.254;4.490;2023-04-20T12:16:14;101759.09;;;12.81;100.00
31005;BME280;17676;52.254;4.490;2023-04-20T12:18:40;101759.72;;;13.17;100.00
31005;BME280;17676;52.254;4.490;2023-04-20T12:21:07;101775.34;;;13.62;100.00
31005;BME280;17676;52.254;4.490;2023-04-20T12:23:33;101766.47;;;13.34;100.00
31005;BME280;17676;52.254;4.490;2023-04-20T12:26:01;101749.03;;;13.95;100.00
31005;BME280;17676;52.254;4.490;2023-04-20T12:28:29;101758.03;;;13.83;100.00
31005;BME280;17676;52.254;4.490;2023-04-20T12:30:54;101746.81;;;13.26;100.00
31005;BME280;17676;52.254;4.490;2023-04-20T12:33:20;101757.91;;;12.97;100.00
31005;BME280;17676;52.254;4.490;2023-04-20T12:35:46;101757.41;;;12.80;100.00
31005;BME280;17676;52.254;4.490;2023-04-20T12:38:12;101753.63;;;12.75;100.00
31005;BME280;17676;52.254;4.490;2023-04-20T12:40:38;101730.94;;;12.55;100.00
31005;BME280;17676;52.254;4.490;2023-04-20T12:43:03;101742.63;;;12.89;100.00
31005;BME280;17676;52.254;4.490;2023-04-20T12:45:29;101744.00;;;13.13;100.00
31005;BME280;17676;52.254;4.490;2023-04-20T12:47:55;101736.25;;;12.69;100.00
31005;BME280;17676;52.254;4.490;2023-04-20T12:50:32;101732.63;;;12.28;100.00
31005;BME280;17676;52.254;4.490;2023-04-20T12:52:59;101739.66;;;11.95;100.00